Terminal Aerodrome Forecast
Issued by NWS

Home | Current Version | Previous Version | Graphics & Text | Print | Product List | Glossary On
Versions: 1 2 3 4 5 6 7 8 9 10 11 12 13 14 15 16
000
FTUS43 KBIS 160300 AAA
TAFMOT
TAF AMD
KMOT 160349Z 1604/1624 09016G24KT 2SM -SN OVC012
     FM161000 06013KT 5SM BR VCSH OVC025
     FM161800 04015KT P6SM BKN050=

USA.gov is the U.S. government's official web portal to all federal, state and local government web resources and services.